createdAt,value
2022-08-19T00:02:02.957Z,41.34
2022-08-19T00:04:29.410Z,41.38
2022-08-19T00:06:55.754Z,41.33
2022-08-19T00:09:22.156Z,41.43
2022-08-19T00:11:48.552Z,41.36
2022-08-19T00:14:14.939Z,41.32
2022-08-19T00:16:41.335Z,41.31
2022-08-19T00:19:07.742Z,41.37
2022-08-19T00:21:34.123Z,41.35
2022-08-19T00:24:00.515Z,41.32
2022-08-19T00:26:26.989Z,41.34
2022-08-19T00:28:53.373Z,41.36
2022-08-19T00:31:19.799Z,41.38
2022-08-19T00:33:46.184Z,41.44
2022-08-19T00:36:12.568Z,41.43
2022-08-19T00:38:38.955Z,41.45
2022-08-19T00:41:05.335Z,41.42
2022-08-19T00:43:31.715Z,41.44
2022-08-19T00:45:58.108Z,41.40
2022-08-19T00:48:24.515Z,41.32
2022-08-19T00:50:51.575Z,41.43
2022-08-19T00:53:17.307Z,41.41
2022-08-19T00:55:43.695Z,41.38
2022-08-19T00:58:10.100Z,41.31
2022-08-19T01:00:36.482Z,41.32
2022-08-19T01:03:02.873Z,41.28
2022-08-19T01:05:29.269Z,41.26
2022-08-19T01:07:55.686Z,41.29
2022-08-19T01:10:22.097Z,41.31
2022-08-19T01:12:50.340Z,41.27
2022-08-19T01:15:14.857Z,41.40
2022-08-19T01:17:41.241Z,41.31
2022-08-19T01:20:07.647Z,41.25
2022-08-19T01:22:34.174Z,41.39
2022-08-19T01:25:00.482Z,41.39
2022-08-19T01:27:26.892Z,41.34
2022-08-19T01:29:53.378Z,41.27
2022-08-19T01:32:32.002Z,41.26
2022-08-19T01:34:46.108Z,41.37
2022-08-19T01:37:12.528Z,41.42
2022-08-19T01:39:38.960Z,41.25
2022-08-19T01:42:05.316Z,41.27
2022-08-19T01:44:31.699Z,41.53
2022-08-19T01:46:58.083Z,41.31
2022-08-19T01:49:24.494Z,41.31
2022-08-19T01:51:50.867Z,41.29
2022-08-19T01:54:23.316Z,41.53
2022-08-19T01:56:43.633Z,41.30
2022-08-19T01:59:10.019Z,41.25
2022-08-19T02:01:36.475Z,41.28
2022-08-19T02:04:02.790Z,41.21
2022-08-19T02:06:29.174Z,41.13
2022-08-19T02:08:57.549Z,41.00
2022-08-19T02:11:23.381Z,41.00
2022-08-19T02:13:48.336Z,40.99
2022-08-19T02:16:14.747Z,40.91
2022-08-19T02:18:41.146Z,40.87
2022-08-19T02:21:07.537Z,40.78
2022-08-19T02:23:33.919Z,40.76
2022-08-19T02:26:00.297Z,40.64
2022-08-19T02:28:26.683Z,40.54
2022-08-19T02:30:53.065Z,40.52
2022-08-19T02:33:19.450Z,40.49
2022-08-19T02:35:45.826Z,40.54
2022-08-19T02:38:12.238Z,40.52
2022-08-19T02:40:38.636Z,40.52
2022-08-19T02:43:05.031Z,40.47
2022-08-19T02:45:31.416Z,40.53
2022-08-19T02:47:57.870Z,40.59
2022-08-19T02:50:24.244Z,40.63
2022-08-19T02:52:50.742Z,40.67
2022-08-19T02:55:17.113Z,40.63
2022-08-19T02:57:43.502Z,40.70
2022-08-19T03:00:09.898Z,40.70
2022-08-19T03:02:36.287Z,40.76
2022-08-19T03:05:02.675Z,40.79
2022-08-19T03:07:29.131Z,40.77
2022-08-19T03:09:55.517Z,40.89
2022-08-19T03:12:21.899Z,40.84
2022-08-19T03:14:48.293Z,40.83
2022-08-19T03:17:14.683Z,40.83
2022-08-19T03:19:41.067Z,40.86
2022-08-19T03:22:07.470Z,40.83
2022-08-19T03:24:33.859Z,40.87
2022-08-19T03:27:00.272Z,40.96
2022-08-19T03:29:30.133Z,40.95
2022-08-19T03:31:53.118Z,40.94
2022-08-19T03:34:19.432Z,40.85
2022-08-19T03:36:45.804Z,40.80
2022-08-19T03:39:12.261Z,40.80
2022-08-19T03:41:45.132Z,40.83
2022-08-19T03:44:05.054Z,40.77
2022-08-19T03:46:31.435Z,40.77
2022-08-19T03:48:57.820Z,40.84
2022-08-19T03:51:30.681Z,40.79
2022-08-19T03:53:50.635Z,40.86
2022-08-19T03:56:17.016Z,40.77
2022-08-19T03:58:43.395Z,40.77
2022-08-19T04:01:12.255Z,40.88
2022-08-19T04:03:36.165Z,42.07
2022-08-19T04:06:02.551Z,47.54
2022-08-19T04:08:28.949Z,42.42
2022-08-19T04:10:55.343Z,42.65
2022-08-19T04:13:21.724Z,42.82
2022-08-19T04:15:48.116Z,42.93
2022-08-19T04:18:14.497Z,42.85
2022-08-19T04:20:40.880Z,42.92
2022-08-19T04:23:07.268Z,42.94
2022-08-19T04:25:33.779Z,43.10
2022-08-19T04:28:00.170Z,42.92
2022-08-19T04:30:26.563Z,42.91
2022-08-19T04:32:53.093Z,42.94
2022-08-19T04:35:22.069Z,42.73
2022-08-19T04:37:45.709Z,42.63
2022-08-19T04:40:12.163Z,42.58
2022-08-19T04:42:38.476Z,42.51
2022-08-19T04:45:05.354Z,42.48
2022-08-19T04:47:48.330Z,42.50
2022-08-19T04:49:57.619Z,42.44
2022-08-19T04:52:24.005Z,42.44
2022-08-19T04:54:50.395Z,42.38
2022-08-19T04:57:16.797Z,42.33
2022-08-19T04:59:43.180Z,42.34
2022-08-19T05:02:09.597Z,42.23
2022-08-19T05:04:35.972Z,42.24
2022-08-19T05:07:02.550Z,42.24
2022-08-19T05:09:28.774Z,42.22
2022-08-19T05:11:55.150Z,42.21
2022-08-19T05:14:21.546Z,42.21
2022-08-19T05:16:47.953Z,42.16
2022-08-19T05:19:14.347Z,42.18
2022-08-19T05:21:40.724Z,42.27
2022-08-19T05:24:07.116Z,42.18
2022-08-19T05:26:33.486Z,42.19
2022-08-19T05:28:59.935Z,42.24
2022-08-19T05:31:26.373Z,42.21
2022-08-19T05:33:52.755Z,42.22
2022-08-19T05:36:19.137Z,42.26
2022-08-19T05:38:45.525Z,42.29
2022-08-19T05:41:11.912Z,42.29
2022-08-19T05:43:38.297Z,42.41
2022-08-19T05:46:04.684Z,42.47
2022-08-19T05:48:31.073Z,42.55
2022-08-19T05:50:57.448Z,42.79
2022-08-19T05:53:23.861Z,42.82
2022-08-19T05:55:50.236Z,42.90
2022-08-19T05:58:16.616Z,43.02
2022-08-19T06:00:43.009Z,43.05
2022-08-19T06:03:11.860Z,43.13
2022-08-19T06:05:51.743Z,43.02
2022-08-19T06:08:02.186Z,43.13
2022-08-19T06:10:28.598Z,43.26
2022-08-19T06:12:54.966Z,43.35
2022-08-19T06:15:21.350Z,43.35
2022-08-19T06:17:47.761Z,43.53
2022-08-19T06:20:14.114Z,43.55
2022-08-19T06:22:40.504Z,43.67
2022-08-19T06:25:06.904Z,43.53
2022-08-19T06:27:33.312Z,43.56
2022-08-19T06:29:59.757Z,43.66
2022-08-19T06:32:26.163Z,43.57
2022-08-19T06:34:52.558Z,43.63
2022-08-19T06:37:18.966Z,43.65
2022-08-19T06:39:45.404Z,43.67
2022-08-19T06:42:12.860Z,43.67
2022-08-19T06:44:42.567Z,43.69
2022-08-19T06:47:09.446Z,43.69
2022-08-19T06:49:31.981Z,43.69
2022-08-19T06:51:58.372Z,43.68
2022-08-19T06:54:24.749Z,43.70
2022-08-19T06:56:51.146Z,43.56
2022-08-19T06:59:17.529Z,43.72
2022-08-19T07:01:45.717Z,43.67
2022-08-19T07:04:12.127Z,43.65
2022-08-19T07:06:44.111Z,43.63
2022-08-19T07:09:03.176Z,43.69
2022-08-19T07:11:29.570Z,43.57
2022-08-19T07:13:55.992Z,43.66
2022-08-19T07:16:29.209Z,43.73
2022-08-19T07:18:48.904Z,43.85
2022-08-19T07:21:15.292Z,43.92
2022-08-19T07:23:41.671Z,43.95
2022-08-19T07:26:08.057Z,44.11
2022-08-19T07:28:34.453Z,44.14
2022-08-19T07:31:00.877Z,44.12
2022-08-19T07:33:27.895Z,44.24
2022-08-19T07:35:53.692Z,44.37
2022-08-19T07:38:20.035Z,44.46
2022-08-19T07:40:46.423Z,44.44
2022-08-19T07:43:16.962Z,44.46
2022-08-19T07:45:39.183Z,44.59
2022-08-19T07:48:05.928Z,44.56
2022-08-19T07:50:31.950Z,44.65
2022-08-19T07:52:58.355Z,44.43
2022-08-19T07:55:41.550Z,44.61
2022-08-19T07:57:51.135Z,44.54
2022-08-19T08:00:20.441Z,44.46
2022-08-19T08:02:43.924Z,44.43
2022-08-19T08:05:10.322Z,44.47
2022-08-19T08:07:36.695Z,44.37
2022-08-19T08:10:03.554Z,44.43
2022-08-19T08:12:36.706Z,44.50
2022-08-19T08:14:56.143Z,44.43
2022-08-19T08:17:31.232Z,44.46
2022-08-19T08:19:49.011Z,44.47
2022-08-19T08:22:15.427Z,44.48
2022-08-19T08:24:41.896Z,44.57
2022-08-19T08:27:11.083Z,44.53
2022-08-19T08:29:35.320Z,44.54
2022-08-19T08:32:01.050Z,44.51
2022-08-19T08:34:27.466Z,44.57
2022-08-19T08:36:53.859Z,44.40
2022-08-19T08:39:20.261Z,44.49
2022-08-19T08:41:46.641Z,44.50
2022-08-19T08:44:17.339Z,44.60
2022-08-19T08:46:39.411Z,44.44
2022-08-19T08:49:05.799Z,44.51
2022-08-19T08:51:35.063Z,44.50
2022-08-19T08:53:58.644Z,44.43
2022-08-19T08:56:25.083Z,44.40
2022-08-19T08:58:54.440Z,44.46
2022-08-19T09:01:17.994Z,44.32
2022-08-19T09:03:44.295Z,44.30
2022-08-19T09:06:12.082Z,44.19
2022-08-19T09:08:37.060Z,44.24
2022-08-19T09:11:03.459Z,44.14
2022-08-19T09:13:30.143Z,44.15
2022-08-19T09:15:56.237Z,44.00
2022-08-19T09:18:22.706Z,43.97
2022-08-19T09:20:49.139Z,43.99
2022-08-19T09:23:15.523Z,44.03
2022-08-19T09:25:41.905Z,43.96
2022-08-19T09:28:22.430Z,44.03
2022-08-19T09:30:34.673Z,44.02
2022-08-19T09:33:01.137Z,43.95
2022-08-19T09:35:28.448Z,43.76
2022-08-19T09:37:57.608Z,43.73
2022-08-19T09:40:20.497Z,43.73
2022-08-19T09:42:49.619Z,43.62
2022-08-19T09:45:13.205Z,43.45
2022-08-19T09:47:40.531Z,43.36
2022-08-19T09:50:05.977Z,43.27
2022-08-19T09:52:32.462Z,43.21
2022-08-19T09:54:58.763Z,43.21
2022-08-19T09:57:25.161Z,43.04
2022-08-19T09:59:51.525Z,43.06
2022-08-19T10:02:22.184Z,42.93
2022-08-19T10:04:44.334Z,42.82
2022-08-19T10:07:10.732Z,42.76
2022-08-19T10:09:37.111Z,42.74
2022-08-19T10:12:03.488Z,42.54
2022-08-19T10:14:29.965Z,42.62
2022-08-19T10:16:56.373Z,42.55
2022-08-19T10:19:25.455Z,42.67
2022-08-19T10:21:49.181Z,42.74
2022-08-19T10:24:15.566Z,42.68
2022-08-19T10:26:41.948Z,42.76
2022-08-19T10:29:09.250Z,42.74
2022-08-19T10:32:01.192Z,42.66
2022-08-19T10:34:02.205Z,42.57
2022-08-19T10:36:27.632Z,42.59
2022-08-19T10:38:56.811Z,42.66
2022-08-19T10:41:20.463Z,42.57
2022-08-19T10:43:46.959Z,42.56
2022-08-19T10:46:13.951Z,42.54
2022-08-19T10:48:39.730Z,42.45
2022-08-19T10:51:06.115Z,42.55
2022-08-19T10:53:32.507Z,42.49
2022-08-19T10:55:58.901Z,42.50
2022-08-19T10:58:25.288Z,42.55
2022-08-19T11:00:51.718Z,42.49
2022-08-19T11:03:18.067Z,42.36
2022-08-19T11:05:44.447Z,42.42
2022-08-19T11:08:22.248Z,42.40
2022-08-19T11:10:39.626Z,42.49
2022-08-19T11:13:06.005Z,42.47
2022-08-19T11:15:32.394Z,42.50
2022-08-19T11:17:58.791Z,42.48
2022-08-19T11:20:25.196Z,42.56
2022-08-19T11:22:51.599Z,42.47
2022-08-19T11:25:17.981Z,42.42
2022-08-19T11:27:45.826Z,42.38
2022-08-19T11:30:12.772Z,42.20
2022-08-19T11:32:37.951Z,42.27
2022-08-19T11:35:04.329Z,42.22
2022-08-19T11:37:30.720Z,42.09
2022-08-19T11:39:57.239Z,42.09
2022-08-19T11:42:23.570Z,41.94
2022-08-19T11:44:49.958Z,41.87
2022-08-19T11:47:16.373Z,41.86
2022-08-19T11:49:42.757Z,41.85
2022-08-19T11:52:09.147Z,41.79
2022-08-19T11:54:35.537Z,41.73
2022-08-19T11:57:01.927Z,41.70
2022-08-19T11:59:28.307Z,41.71
2022-08-19T12:01:54.722Z,41.67
2022-08-19T12:04:21.269Z,41.73
2022-08-19T12:06:47.597Z,41.76
2022-08-19T12:09:13.992Z,41.76
2022-08-19T12:11:40.391Z,41.77
2022-08-19T12:14:06.772Z,41.75
2022-08-19T12:16:33.165Z,41.79
2022-08-19T12:18:59.542Z,41.82
2022-08-19T12:21:25.938Z,41.78
2022-08-19T12:23:55.706Z,41.82
2022-08-19T12:26:18.695Z,41.88
2022-08-19T12:28:45.089Z,41.95
2022-08-19T12:31:11.494Z,41.79
2022-08-19T12:33:37.866Z,41.74
2022-08-19T12:36:04.323Z,41.76
2022-08-19T12:38:30.720Z,41.95
2022-08-19T12:41:00.182Z,41.99
2022-08-19T12:43:23.510Z,42.05
2022-08-19T12:45:49.957Z,42.09
2022-08-19T12:48:34.320Z,42.18
2022-08-19T12:50:42.744Z,42.14
2022-08-19T12:53:09.127Z,42.08
2022-08-19T12:55:35.510Z,42.10
2022-08-19T12:58:01.907Z,42.02
2022-08-19T13:00:28.348Z,42.05
2022-08-19T13:02:54.737Z,41.72
2022-08-19T13:05:21.127Z,41.80
2022-08-19T13:07:47.514Z,41.63
2022-08-19T13:10:13.904Z,41.57
2022-08-19T13:12:40.312Z,41.74
2022-08-19T13:15:10.727Z,41.79
2022-08-19T13:17:33.196Z,41.64
2022-08-19T13:20:01.234Z,41.69
2022-08-19T13:22:25.963Z,41.53
2022-08-19T13:24:52.412Z,41.73
2022-08-19T13:27:18.799Z,41.60
2022-08-19T13:29:45.184Z,41.61
2022-08-19T13:32:11.686Z,41.59
2022-08-19T13:34:38.075Z,41.70
2022-08-19T13:37:04.449Z,41.60
2022-08-19T13:39:30.907Z,41.63
2022-08-19T13:41:57.236Z,41.66
2022-08-19T13:44:23.622Z,41.77
2022-08-19T13:46:50.005Z,41.81
2022-08-19T13:49:16.511Z,41.76
2022-08-19T13:51:42.891Z,41.82
2022-08-19T13:54:09.314Z,41.89
2022-08-19T13:56:35.676Z,41.79
2022-08-19T13:59:02.061Z,41.86
2022-08-19T14:01:28.450Z,41.88
2022-08-19T14:03:54.873Z,41.94
2022-08-19T14:06:21.436Z,41.82
2022-08-19T14:08:47.881Z,41.90
2022-08-19T14:11:14.270Z,41.95
2022-08-19T14:13:40.688Z,41.88
2022-08-19T14:16:07.056Z,41.80
2022-08-19T14:18:33.443Z,41.79
2022-08-19T14:20:59.833Z,41.77
2022-08-19T14:23:26.266Z,41.79
2022-08-19T14:25:52.653Z,41.76
2022-08-19T14:28:19.136Z,41.79
2022-08-19T14:30:45.544Z,41.82
2022-08-19T14:33:11.968Z,41.79
2022-08-19T14:35:38.353Z,41.87
2022-08-19T14:38:04.740Z,41.99
2022-08-19T14:40:31.123Z,41.68
2022-08-19T14:42:57.529Z,41.76
2022-08-19T14:45:23.947Z,41.84
2022-08-19T14:47:50.353Z,42.04
2022-08-19T14:50:18.618Z,42.08
2022-08-19T14:52:43.124Z,42.06
2022-08-19T14:55:09.517Z,42.25
2022-08-19T14:57:35.902Z,42.12
2022-08-19T15:00:02.311Z,42.18
2022-08-19T15:02:35.004Z,42.11
2022-08-19T15:04:58.121Z,42.15
2022-08-19T15:07:21.476Z,42.16
2022-08-19T15:09:47.905Z,42.08
2022-08-19T15:12:14.318Z,42.15
2022-08-19T15:14:40.763Z,42.04
2022-08-19T15:17:07.173Z,41.99
2022-08-19T15:19:33.545Z,41.96
2022-08-19T15:21:59.961Z,41.95
2022-08-19T15:24:26.388Z,42.02
2022-08-19T15:26:52.799Z,42.10
2022-08-19T15:29:19.188Z,42.10
2022-08-19T15:31:45.566Z,42.05
2022-08-19T15:34:11.951Z,41.85
2022-08-19T15:36:38.459Z,41.74
2022-08-19T15:39:04.879Z,41.76
2022-08-19T15:41:31.304Z,41.70
2022-08-19T15:43:57.682Z,41.70
2022-08-19T15:46:24.103Z,41.77
2022-08-19T15:48:55.978Z,41.74
2022-08-19T15:51:18.505Z,41.71
2022-08-19T15:53:43.244Z,41.73
2022-08-19T15:56:09.627Z,41.76
2022-08-19T15:58:36.004Z,41.69
2022-08-19T16:01:02.473Z,41.79
2022-08-19T16:03:28.892Z,41.79
2022-08-19T16:05:55.260Z,41.83
2022-08-19T16:08:21.661Z,41.79
2022-08-19T16:10:48.044Z,41.77
2022-08-19T16:13:14.422Z,41.75
2022-08-19T16:15:40.815Z,41.73
2022-08-19T16:18:07.201Z,41.56
2022-08-19T16:20:35.596Z,41.55
2022-08-19T16:23:00.020Z,41.36
2022-08-19T16:25:26.430Z,41.40
2022-08-19T16:28:06.155Z,41.36
2022-08-19T16:30:19.167Z,41.33
2022-08-19T16:32:45.594Z,41.25
2022-08-19T16:35:12.005Z,41.21
2022-08-19T16:37:38.391Z,41.26
2022-08-19T16:40:04.861Z,41.25
2022-08-19T16:42:31.226Z,41.22
2022-08-19T16:44:57.616Z,41.28
2022-08-19T16:47:25.031Z,41.29
2022-08-19T16:49:52.869Z,41.28
2022-08-19T16:52:16.901Z,41.35
2022-08-19T16:54:43.516Z,41.44
2022-08-19T16:57:09.768Z,41.47
2022-08-19T16:59:36.157Z,41.44
2022-08-19T17:02:02.547Z,41.57
2022-08-19T17:04:28.944Z,41.62
2022-08-19T17:06:55.336Z,41.67
2022-08-19T17:09:25.843Z,41.60
2022-08-19T17:11:48.128Z,41.60
2022-08-19T17:14:14.516Z,41.63
2022-08-19T17:16:40.985Z,41.63
2022-08-19T17:19:07.359Z,41.62
2022-08-19T17:21:33.749Z,41.67
2022-08-19T17:24:00.193Z,41.65
2022-08-19T17:26:26.576Z,41.70
2022-08-19T17:28:52.958Z,41.65
2022-08-19T17:31:19.337Z,41.72
2022-08-19T17:33:48.440Z,41.79
2022-08-19T17:36:12.212Z,41.85
2022-08-19T17:38:38.600Z,41.81
2022-08-19T17:41:04.989Z,41.85
2022-08-19T17:43:32.468Z,42.01
2022-08-19T17:45:57.776Z,42.05
2022-08-19T17:48:24.174Z,42.11
2022-08-19T17:50:50.554Z,42.11
2022-08-19T17:53:16.948Z,42.15
2022-08-19T17:55:43.344Z,42.09
2022-08-19T17:58:11.225Z,42.07
2022-08-19T18:00:36.147Z,41.97
2022-08-19T18:03:02.524Z,42.02
2022-08-19T18:05:28.909Z,41.94
2022-08-19T18:07:55.311Z,41.90
2022-08-19T18:10:21.681Z,41.90
2022-08-19T18:12:48.062Z,41.65
2022-08-19T18:15:14.463Z,41.53
2022-08-19T18:17:40.851Z,41.48
2022-08-19T18:20:10.696Z,41.44
2022-08-19T18:22:33.617Z,41.41
2022-08-19T18:25:00.032Z,41.35
2022-08-19T18:27:26.531Z,41.28
2022-08-19T18:29:52.910Z,41.17
2022-08-19T18:32:23.897Z,41.18
2022-08-19T18:34:45.776Z,41.16
2022-08-19T18:37:12.175Z,41.12
2022-08-19T18:39:38.587Z,41.08
2022-08-19T18:42:04.930Z,41.05
2022-08-19T18:44:31.313Z,41.02
2022-08-19T18:46:57.911Z,41.02
2022-08-19T18:49:24.329Z,41.02
2022-08-19T18:51:50.725Z,40.92
2022-08-19T18:54:17.113Z,40.95
2022-08-19T18:56:43.502Z,40.90
2022-08-19T18:59:09.885Z,40.91
2022-08-19T19:01:36.314Z,40.86
2022-08-19T19:04:02.641Z,40.86
2022-08-19T19:06:29.053Z,40.85
2022-08-19T19:08:55.426Z,40.82
2022-08-19T19:11:21.817Z,40.79
2022-08-19T19:13:48.188Z,40.76
2022-08-19T19:16:14.583Z,40.76
2022-08-19T19:18:40.979Z,40.73
2022-08-19T19:21:07.377Z,40.72
2022-08-19T19:23:33.754Z,40.69
2022-08-19T19:26:00.136Z,40.74
2022-08-19T19:28:26.513Z,40.71
2022-08-19T19:30:52.901Z,40.69
2022-08-19T19:33:19.283Z,40.68
2022-08-19T19:35:47.046Z,40.70
2022-08-19T19:38:12.071Z,40.70
2022-08-19T19:40:38.452Z,40.72
2022-08-19T19:43:04.836Z,40.74
2022-08-19T19:45:31.214Z,40.73
2022-08-19T19:47:57.704Z,40.74
2022-08-19T19:50:24.145Z,40.76
2022-08-19T19:52:50.553Z,40.77
2022-08-19T19:55:16.936Z,40.76
2022-08-19T19:57:43.322Z,40.80
2022-08-19T20:00:09.778Z,40.79
2022-08-19T20:02:36.166Z,40.84
2022-08-19T20:05:02.557Z,40.79
2022-08-19T20:07:28.966Z,40.91
2022-08-19T20:10:00.109Z,40.90
2022-08-19T20:12:21.731Z,40.94
2022-08-19T20:14:48.145Z,40.93
2022-08-19T20:17:14.513Z,40.94
2022-08-19T20:19:40.908Z,40.93
2022-08-19T20:22:07.285Z,40.96
2022-08-19T20:24:33.671Z,40.98
2022-08-19T20:27:00.058Z,40.95
2022-08-19T20:29:38.895Z,40.95
2022-08-19T20:31:57.308Z,40.99
2022-08-19T20:34:19.205Z,40.95
2022-08-19T20:36:45.655Z,40.97
2022-08-19T20:39:12.053Z,40.96
2022-08-19T20:41:38.439Z,40.95
2022-08-19T20:44:04.828Z,40.93
2022-08-19T20:46:31.219Z,40.91
2022-08-19T20:48:57.597Z,40.93
2022-08-19T20:51:23.993Z,40.88
2022-08-19T20:53:51.569Z,40.92
2022-08-19T20:56:16.763Z,40.92
2022-08-19T20:58:43.145Z,40.94
2022-08-19T21:01:09.606Z,41.03
2022-08-19T21:03:35.921Z,41.08
2022-08-19T21:06:02.333Z,41.09
2022-08-19T21:08:28.781Z,41.08
2022-08-19T21:10:55.211Z,40.99
2022-08-19T21:13:21.596Z,40.99
2022-08-19T21:15:47.983Z,41.08
2022-08-19T21:18:14.374Z,41.00
2022-08-19T21:20:40.782Z,40.95
2022-08-19T21:23:07.173Z,40.91
2022-08-19T21:25:33.565Z,41.02
2022-08-19T21:27:59.975Z,40.89
2022-08-19T21:30:26.475Z,40.92
2022-08-19T21:32:52.874Z,40.92
2022-08-19T21:35:19.248Z,40.98
2022-08-19T21:37:45.631Z,40.99
2022-08-19T21:40:12.056Z,41.02
2022-08-19T21:42:38.422Z,41.00
2022-08-19T21:45:04.820Z,41.02
2022-08-19T21:47:32.841Z,40.96
2022-08-19T21:49:57.579Z,41.16
2022-08-19T21:52:23.964Z,41.08
2022-08-19T21:54:50.366Z,40.99
2022-08-19T21:57:16.752Z,40.99
2022-08-19T21:59:43.769Z,41.06
2022-08-19T22:02:19.580Z,41.12
2022-08-19T22:04:35.927Z,41.12
2022-08-19T22:07:02.476Z,41.02
2022-08-19T22:09:28.795Z,41.03
2022-08-19T22:11:55.185Z,41.08
2022-08-19T22:14:21.570Z,41.05
2022-08-19T22:16:47.956Z,41.14
2022-08-19T22:19:14.348Z,41.05
2022-08-19T22:21:41.268Z,41.06
2022-08-19T22:24:07.113Z,41.14
2022-08-19T22:26:34.725Z,41.18
2022-08-19T22:28:59.881Z,41.03
2022-08-19T22:31:26.261Z,40.96
2022-08-19T22:33:52.658Z,41.12
2022-08-19T22:36:19.155Z,41.25
2022-08-19T22:38:45.556Z,41.07
2022-08-19T22:41:11.937Z,41.07
2022-08-19T22:43:38.324Z,41.17
2022-08-19T22:46:04.702Z,41.12
2022-08-19T22:48:31.257Z,41.18
2022-08-19T22:50:57.683Z,41.12
2022-08-19T22:53:24.028Z,41.19
2022-08-19T22:55:50.413Z,41.14
2022-08-19T22:58:16.803Z,41.10
2022-08-19T23:00:43.220Z,41.12
2022-08-19T23:03:09.578Z,41.21
2022-08-19T23:05:37.959Z,41.27
2022-08-19T23:08:02.431Z,41.06
2022-08-19T23:10:28.834Z,41.16
2022-08-19T23:12:55.256Z,41.21
2022-08-19T23:15:21.628Z,41.21
2022-08-19T23:17:48.110Z,41.08
2022-08-19T23:20:14.492Z,41.03
2022-08-19T23:22:40.977Z,41.15
2022-08-19T23:25:07.360Z,41.13
2022-08-19T23:27:33.742Z,41.04
2022-08-19T23:30:00.147Z,41.07
2022-08-19T23:32:26.612Z,41.13
2022-08-19T23:34:52.997Z,41.13
2022-08-19T23:37:19.379Z,41.11
2022-08-19T23:39:45.809Z,41.10
2022-08-19T23:42:12.145Z,41.10
2022-08-19T23:44:51.884Z,41.05
2022-08-19T23:47:04.908Z,41.03
2022-08-19T23:49:31.299Z,41.02
2022-08-19T23:51:57.688Z,41.01
2022-08-19T23:54:27.475Z,41.04
2022-08-19T23:56:50.467Z,40.96
2022-08-19T23:59:16.848Z,40.96
